Airport Name : Pafos Intl

Other Name : Pafos Intl

ICAO : LCPH

IATA : PFO

FAA :

Latitude : 34.718039

Longitude : 32.485731

Country : Cyprus

Local Date and Time : 7/23/2018 4:25:00 PM

 

TAF (Terminal Aerodrome Forecast)

TAF LCPH 231130Z 2312/2412 28015KT 9999 FEW040 BECMG 2319/2323 35007KT BECMG 2305/2309 26012KT

 

METAR (METeorological Aerodrome Report)

LCPH 231300Z 28014KT CAVOK 32/24 Q1002

LCPH 231230Z 30016KT CAVOK 33/23 Q1002

LCPH 231200Z 29014KT CAVOK 32/25 Q1003

LCPH 231130Z 27016KT 9999 FEW050 32/26 Q1003

LCPH 231100Z 26014KT 9999 FEW050 31/26 Q1003

LCPH 231030Z 26012KT 9999 FEW050 31/26 Q1003

LCPH 231000Z 26011KT 9999 FEW050 30/26 Q1003

LCPH 230930Z 27012KT 9999 FEW050 31/25 Q1003